createdAt,value
2023-02-19T00:01:53.857Z,99335.44
2023-02-19T00:04:22.835Z,99334.91
2023-02-19T00:06:51.443Z,99333.28
2023-02-19T00:09:20.082Z,99328.94
2023-02-19T00:11:48.451Z,99338.03
2023-02-19T00:14:19.535Z,99334.78
2023-02-19T00:16:47.776Z,99325.22
2023-02-19T00:19:18.213Z,99331.34
2023-02-19T00:21:46.523Z,99335.84
2023-02-19T00:24:15.492Z,99335.97
2023-02-19T00:26:45.685Z,99332.03
2023-02-19T00:29:16.184Z,99334.94
2023-02-19T00:31:45.241Z,99334.34
2023-02-19T00:34:14.124Z,99336.25
2023-02-19T00:36:42.943Z,99324.16
2023-02-19T00:39:14.347Z,99318.06
2023-02-19T00:41:42.443Z,99326.81
2023-02-19T00:44:11.400Z,99328.47
2023-02-19T00:46:46.276Z,99320.91
2023-02-19T00:49:20.708Z,99326.72
2023-02-19T00:51:50.625Z,99325.63
2023-02-19T00:54:18.981Z,99327.34
2023-02-19T00:56:47.261Z,99331.59
2023-02-19T00:59:15.729Z,99328.72
2023-02-19T01:01:44.999Z,99325.28
2023-02-19T01:04:13.847Z,99328.16
2023-02-19T01:06:42.317Z,99337.19
2023-02-19T01:09:10.449Z,99328.84
2023-02-19T01:11:38.432Z,99317.50
2023-02-19T01:14:06.883Z,99319.84
2023-02-19T01:16:35.284Z,99328.06
2023-02-19T01:19:03.851Z,99333.59
2023-02-19T01:21:32.222Z,99329.66
2023-02-19T01:24:00.254Z,99335.25
2023-02-19T01:26:31.403Z,99323.28
2023-02-19T01:29:00.637Z,99321.19
2023-02-19T01:31:29.496Z,99315.09
2023-02-19T01:34:00.116Z,99315.50
2023-02-19T01:36:29.480Z,99309.59
2023-02-19T01:39:00.432Z,99301.03
2023-02-19T01:41:28.804Z,99299.84
2023-02-19T01:44:04.512Z,99301.91
2023-02-19T01:46:34.230Z,99291.13
2023-02-19T01:49:15.465Z,99292.69
2023-02-19T01:51:51.755Z,99299.53
2023-02-19T01:54:22.483Z,99302.34
2023-02-19T01:56:51.754Z,99292.25
2023-02-19T01:59:19.888Z,99286.97
2023-02-19T02:01:48.128Z,99296.38
2023-02-19T02:04:17.486Z,99292.84
2023-02-19T02:06:53.118Z,99292.69
2023-02-19T02:09:41.936Z,99294.84
2023-02-19T02:12:10.558Z,99294.56
2023-02-19T02:14:41.278Z,99295.19
2023-02-19T02:17:18.347Z,99293.63
2023-02-19T02:19:58.658Z,99290.34
2023-02-19T02:22:43.629Z,99285.97
2023-02-19T02:25:21.038Z,99306.41
2023-02-19T02:28:05.119Z,99294.72
2023-02-19T02:30:50.807Z,99286.97
2023-02-19T02:33:48.401Z,99284.56
2023-02-19T02:36:27.829Z,99287.25
2023-02-19T02:38:57.097Z,99295.81
2023-02-19T02:41:25.770Z,99301.78
2023-02-19T02:43:53.741Z,99297.88
2023-02-19T02:46:36.101Z,99292.56
2023-02-19T02:49:22.500Z,99290.63
2023-02-19T02:51:53.189Z,99291.53
2023-02-19T02:54:44.150Z,99307.16
2023-02-19T02:57:15.101Z,99293.84
2023-02-19T02:59:45.077Z,99285.44
2023-02-19T03:02:23.037Z,99297.81
2023-02-19T03:05:13.401Z,99295.25
2023-02-19T03:07:46.359Z,99277.03
2023-02-19T03:10:20.349Z,99281.47
2023-02-19T03:13:09.707Z,99285.72
2023-02-19T03:16:02.677Z,99277.63
2023-02-19T03:18:50.132Z,99277.91
2023-02-19T03:21:19.836Z,99277.13
2023-02-19T03:24:07.265Z,99278.38
2023-02-19T03:26:37.136Z,99291.41
2023-02-19T03:29:24.161Z,99286.75
2023-02-19T03:31:58.293Z,99288.81
2023-02-19T03:34:42.995Z,99288.88
2023-02-19T03:37:15.705Z,99295.38
2023-02-19T03:39:47.168Z,99301.09
2023-02-19T03:43:00.806Z,99286.22
2023-02-19T03:45:35.569Z,99277.87
2023-02-19T03:48:04.171Z,99287.34
2023-02-19T03:51:17.187Z,99278.19
2023-02-19T03:53:49.157Z,99289.16
2023-02-19T03:56:35.146Z,99278.06
2023-02-19T03:59:41.397Z,99265.88
2023-02-19T04:02:15.570Z,99272.34
2023-02-19T04:04:47.768Z,99278.59
2023-02-19T04:07:15.868Z,99276.59
2023-02-19T04:09:47.746Z,99284.69
2023-02-19T04:12:17.203Z,99272.53
2023-02-19T04:15:01.920Z,99272.62
2023-02-19T04:18:08.256Z,99278.06
2023-02-19T04:20:45.271Z,99279.09
2023-02-19T04:23:15.512Z,99283.47
2023-02-19T04:25:46.104Z,99284.47
2023-02-19T04:28:15.098Z,99285.81
2023-02-19T04:30:44.070Z,99287.03
2023-02-19T04:33:12.108Z,99287.00
2023-02-19T04:35:40.128Z,99299.50
2023-02-19T04:38:08.631Z,99291.47
2023-02-19T04:40:36.547Z,99291.87
2023-02-19T04:43:04.394Z,99294.28
2023-02-19T04:45:32.690Z,99300.22
2023-02-19T04:48:00.564Z,99297.06
2023-02-19T04:50:28.506Z,99287.56
2023-02-19T04:52:57.011Z,99299.94
2023-02-19T04:55:24.954Z,99293.31
2023-02-19T04:57:53.027Z,99291.06
2023-02-19T05:00:21.457Z,99289.31
2023-02-19T05:02:49.631Z,99297.41
2023-02-19T05:05:17.728Z,99300.00
2023-02-19T05:07:46.085Z,99296.12
2023-02-19T05:10:14.053Z,99288.28
2023-02-19T05:12:41.951Z,99290.25
2023-02-19T05:15:10.225Z,99289.41
2023-02-19T05:17:38.186Z,99291.41
2023-02-19T05:20:06.669Z,99296.50
2023-02-19T05:22:34.992Z,99288.44
2023-02-19T05:25:02.965Z,99287.94
2023-02-19T05:27:31.629Z,99289.12
2023-02-19T05:30:00.031Z,99292.50
2023-02-19T05:32:28.014Z,99285.47
2023-02-19T05:34:55.981Z,99279.81
2023-02-19T05:37:24.285Z,99267.00
2023-02-19T05:39:52.215Z,99280.41
2023-02-19T05:42:20.123Z,99282.78
2023-02-19T05:44:48.422Z,99286.25
2023-02-19T05:47:16.435Z,99281.59
2023-02-19T05:49:44.384Z,99281.81
2023-02-19T05:52:12.833Z,99281.81
2023-02-19T05:54:40.780Z,99280.38
2023-02-19T05:57:08.594Z,99294.22
2023-02-19T05:59:37.093Z,99286.09
2023-02-19T06:02:05.064Z,99294.13
2023-02-19T06:04:33.356Z,99296.59
2023-02-19T06:07:01.422Z,99289.25
2023-02-19T06:09:29.515Z,99284.84
2023-02-19T06:11:57.893Z,99283.06
2023-02-19T06:14:25.840Z,99291.38
2023-02-19T06:16:53.744Z,99285.84
2023-02-19T06:19:22.068Z,99291.03
2023-02-19T06:21:52.697Z,99279.78
2023-02-19T06:24:20.795Z,99284.53
2023-02-19T06:26:49.544Z,99284.09
2023-02-19T06:29:17.840Z,99276.50
2023-02-19T06:31:46.232Z,99279.31
2023-02-19T06:34:14.712Z,99277.09
2023-02-19T06:36:42.818Z,99278.56
2023-02-19T06:39:11.056Z,99276.87
2023-02-19T06:41:39.432Z,99273.38
2023-02-19T06:44:07.309Z,99264.34
2023-02-19T06:46:35.911Z,99270.25
2023-02-19T06:49:05.314Z,99268.16
2023-02-19T06:51:33.852Z,99265.81
2023-02-19T06:54:04.646Z,99268.47
2023-02-19T06:56:35.442Z,99264.75
2023-02-19T06:59:05.712Z,99261.37
2023-02-19T07:01:35.699Z,99266.38
2023-02-19T07:04:04.832Z,99267.69
2023-02-19T07:06:34.748Z,99262.28
2023-02-19T07:09:03.997Z,99263.72
2023-02-19T07:11:33.915Z,99268.69
2023-02-19T07:14:03.826Z,99278.69
2023-02-19T07:16:32.002Z,99276.63
2023-02-19T07:19:00.892Z,99283.87
2023-02-19T07:21:30.123Z,99280.81
2023-02-19T07:23:58.501Z,99270.53
2023-02-19T07:26:26.554Z,99282.50
2023-02-19T07:28:54.975Z,99285.56
2023-02-19T07:31:24.281Z,99281.91
2023-02-19T07:33:52.928Z,99273.22
2023-02-19T07:36:22.752Z,99278.13
2023-02-19T07:38:57.780Z,99269.66
2023-02-19T07:41:27.436Z,99271.44
2023-02-19T07:43:57.312Z,99263.41
2023-02-19T07:46:25.790Z,99257.41
2023-02-19T07:48:53.703Z,99264.06
2023-02-19T07:51:22.073Z,99266.12
2023-02-19T07:53:50.905Z,99269.34
2023-02-19T07:56:19.954Z,99280.09
2023-02-19T07:58:48.047Z,99277.03
2023-02-19T08:01:42.080Z,99292.78
2023-02-19T08:04:11.494Z,99299.84
2023-02-19T08:06:39.509Z,99300.75
2023-02-19T08:09:07.553Z,99307.81
2023-02-19T08:11:54.190Z,99302.84
2023-02-19T08:14:28.569Z,99302.31
2023-02-19T08:16:57.167Z,99311.44
2023-02-19T08:19:25.477Z,99316.81
2023-02-19T08:21:53.810Z,99323.41
2023-02-19T08:24:22.289Z,99323.47
2023-02-19T08:26:50.299Z,99319.12
2023-02-19T08:29:18.762Z,99314.31
2023-02-19T08:31:47.307Z,99316.91
2023-02-19T08:34:15.258Z,99314.69
2023-02-19T08:36:44.385Z,99307.53
2023-02-19T08:39:12.696Z,99302.50
2023-02-19T08:41:40.704Z,99296.88
2023-02-19T08:44:08.760Z,99298.53
2023-02-19T08:46:37.056Z,99308.72
2023-02-19T08:49:04.955Z,99305.13
2023-02-19T08:51:32.877Z,99310.84
2023-02-19T08:54:03.932Z,99308.44
2023-02-19T08:56:31.835Z,99298.88
2023-02-19T08:58:59.845Z,99295.62
2023-02-19T09:01:28.461Z,99302.75
2023-02-19T09:03:56.426Z,99305.84
2023-02-19T09:06:24.541Z,99297.28
2023-02-19T09:08:52.803Z,99316.59
2023-02-19T09:11:20.925Z,99293.22
2023-02-19T09:13:48.993Z,99302.59
2023-02-19T09:16:17.315Z,99303.19
2023-02-19T09:18:46.037Z,99305.13
2023-02-19T09:21:14.226Z,99292.78
2023-02-19T09:23:42.803Z,99304.06
2023-02-19T09:26:11.685Z,99303.34
2023-02-19T09:28:42.064Z,99299.19
2023-02-19T09:31:15.943Z,99297.84
2023-02-19T09:33:48.028Z,99292.50
2023-02-19T09:36:17.308Z,99293.13
2023-02-19T09:38:45.550Z,99290.06
2023-02-19T09:41:32.790Z,99295.13
2023-02-19T09:44:03.483Z,99292.69
2023-02-19T09:46:35.700Z,99289.75
2023-02-19T09:49:08.241Z,99297.69
2023-02-19T09:51:38.092Z,99293.59
2023-02-19T09:54:10.062Z,99289.00
2023-02-19T09:56:38.329Z,99291.00
2023-02-19T09:59:08.033Z,99285.31
2023-02-19T10:01:38.283Z,99272.13
2023-02-19T10:15:39.697Z,99257.59
2023-02-19T10:18:11.127Z,99253.75
2023-02-19T10:20:39.899Z,99248.78
2023-02-19T10:23:10.543Z,99254.25
2023-02-19T10:25:43.255Z,99249.16
2023-02-19T10:28:19.227Z,99247.34
2023-02-19T10:30:52.711Z,99245.50
2023-02-19T10:33:21.718Z,99246.25
2023-02-19T10:36:21.526Z,99236.84
2023-02-19T10:38:49.921Z,99226.78
2023-02-19T10:41:22.720Z,99226.44
2023-02-19T10:44:07.106Z,99220.00
2023-02-19T10:46:43.924Z,99227.38
2023-02-19T10:49:33.008Z,99222.03
2023-02-19T10:52:05.732Z,99215.31
2023-02-19T10:54:35.967Z,99218.63
2023-02-19T10:57:16.395Z,99216.37
2023-02-19T11:00:01.304Z,99204.56
2023-02-19T11:02:30.755Z,99196.28
2023-02-19T11:05:17.299Z,99198.63
2023-02-19T11:07:48.005Z,99201.13
2023-02-19T11:10:38.743Z,99207.84
2023-02-19T11:13:07.756Z,99185.94
2023-02-19T11:15:37.153Z,99201.78
2023-02-19T11:18:14.162Z,99186.44
2023-02-19T11:20:54.592Z,99189.62
2023-02-19T11:23:29.073Z,99185.63
2023-02-19T11:26:00.670Z,99176.13
2023-02-19T11:28:35.866Z,99200.72
2023-02-19T11:31:35.786Z,99187.25
2023-02-19T11:34:29.792Z,99199.41
2023-02-19T11:37:10.264Z,99190.63
2023-02-19T11:39:40.234Z,99184.53
2023-02-19T11:42:20.723Z,99176.53
2023-02-19T11:44:48.818Z,99182.69
2023-02-19T11:47:39.006Z,99178.69
2023-02-19T11:50:25.350Z,99174.84
2023-02-19T11:53:32.276Z,99174.06
2023-02-19T11:56:22.166Z,99174.41
2023-02-19T11:59:02.653Z,99165.81
2023-02-19T12:01:50.655Z,99163.75
2023-02-19T12:04:56.218Z,99160.53
2023-02-19T12:07:33.318Z,99154.56
2023-02-19T12:10:19.111Z,99150.44
2023-02-19T12:12:56.145Z,99128.53
2023-02-19T12:15:30.472Z,99136.34
2023-02-19T12:18:17.061Z,99135.53
2023-02-19T12:21:24.656Z,99137.22
2023-02-19T12:24:12.120Z,99130.81
2023-02-19T12:27:54.644Z,99122.34
2023-02-19T12:30:46.231Z,99132.28
2023-02-19T12:33:33.452Z,99127.94
2023-02-19T12:36:04.058Z,99140.41
2023-02-19T12:38:45.499Z,99122.34
2023-02-19T12:41:28.668Z,99127.09
2023-02-19T12:44:04.841Z,99124.25
2023-02-19T12:46:36.541Z,99114.28
2023-02-19T12:49:16.981Z,99115.50
2023-02-19T12:51:50.533Z,99101.75
2023-02-19T12:54:19.010Z,99107.81
2023-02-19T12:57:07.117Z,99106.75
2023-02-19T12:59:40.803Z,99084.19
2023-02-19T13:02:46.174Z,99091.84
2023-02-19T13:05:42.275Z,99092.59
2023-02-19T13:08:14.884Z,99100.09
2023-02-19T13:11:00.072Z,99082.69
2023-02-19T13:13:34.412Z,99079.09
2023-02-19T13:16:07.825Z,99082.41
2023-02-19T13:18:41.987Z,99065.38
2023-02-19T13:21:12.161Z,99074.28
2023-02-19T13:24:01.795Z,99078.94
2023-02-19T13:26:55.720Z,99065.53
2023-02-19T13:29:47.021Z,99051.75
2023-02-19T13:32:21.675Z,99046.28
2023-02-19T13:35:18.292Z,99042.91
2023-02-19T13:37:47.166Z,99033.28
2023-02-19T13:40:35.264Z,99012.63
2023-02-19T13:43:06.279Z,99024.72
2023-02-19T13:45:35.550Z,99019.59
2023-02-19T13:48:24.196Z,99025.69
2023-02-19T13:51:24.917Z,99034.75
2023-02-19T13:53:56.285Z,99036.66
2023-02-19T13:56:30.274Z,99067.81
2023-02-19T13:59:12.645Z,99066.19
2023-02-19T14:01:50.262Z,99092.03
2023-02-19T14:04:47.736Z,99125.22
2023-02-19T14:07:15.546Z,99151.09
2023-02-19T14:09:47.000Z,99163.53
2023-02-19T14:12:16.095Z,99164.69
2023-02-19T14:14:55.266Z,99197.81
2023-02-19T14:17:39.556Z,99211.47
2023-02-19T14:20:16.871Z,99187.41
2023-02-19T14:22:57.087Z,99191.53
2023-02-19T14:25:30.898Z,99188.44
2023-02-19T14:28:06.277Z,99184.94
2023-02-19T14:30:46.812Z,99203.69
2023-02-19T14:33:16.976Z,99208.16
2023-02-19T14:35:47.754Z,99195.84
2023-02-19T14:38:21.210Z,99186.34
2023-02-19T14:40:50.558Z,99192.37
2023-02-19T14:43:20.319Z,99184.66
2023-02-19T14:45:53.771Z,99189.69
2023-02-19T14:48:30.472Z,99178.91
2023-02-19T14:51:08.305Z,99178.06
2023-02-19T14:53:42.270Z,99167.66
2023-02-19T14:56:20.852Z,99164.81
2023-02-19T14:59:12.017Z,99154.91
2023-02-19T15:01:40.682Z,99159.56
2023-02-19T15:04:25.566Z,99145.47
2023-02-19T15:06:56.876Z,99160.31
2023-02-19T15:09:30.991Z,99184.81
2023-02-19T15:12:00.188Z,99208.06
2023-02-19T15:14:30.894Z,99227.31
2023-02-19T15:17:01.971Z,99229.25
2023-02-19T15:19:33.751Z,99223.22
2023-02-19T15:22:02.238Z,99205.12
2023-02-19T15:24:30.769Z,99216.81
2023-02-19T15:26:58.920Z,99206.31
2023-02-19T15:29:28.201Z,99211.75
2023-02-19T15:31:58.983Z,99217.47
2023-02-19T15:34:29.088Z,99216.81
2023-02-19T15:36:59.503Z,99231.44
2023-02-19T15:39:34.913Z,99247.34
2023-02-19T15:42:05.092Z,99250.09
2023-02-19T15:44:59.464Z,99239.69
2023-02-19T15:47:33.520Z,99244.97
2023-02-19T15:50:11.775Z,99240.56
2023-02-19T15:52:59.718Z,99255.56
2023-02-19T15:55:42.102Z,99242.44
2023-02-19T15:58:19.025Z,99245.78
2023-02-19T16:00:50.902Z,99245.41
2023-02-19T16:03:24.019Z,99258.47
2023-02-19T16:06:14.320Z,99246.37
2023-02-19T16:08:44.813Z,99252.00
2023-02-19T16:11:24.983Z,99247.94
2023-02-19T16:13:54.197Z,99253.97
2023-02-19T16:16:30.029Z,99263.56
2023-02-19T16:18:58.592Z,99275.75
2023-02-19T16:21:27.232Z,99252.09
2023-02-19T16:24:21.318Z,99268.59
2023-02-19T16:26:50.446Z,99269.37
2023-02-19T16:29:29.957Z,99276.34
2023-02-19T16:32:04.053Z,99272.78
2023-02-19T16:34:42.045Z,99287.34
2023-02-19T16:37:30.404Z,99271.94
2023-02-19T16:40:07.594Z,99281.72
2023-02-19T16:43:01.251Z,99298.06
2023-02-19T16:45:29.181Z,99303.34
2023-02-19T16:47:57.575Z,99314.59
2023-02-19T16:50:27.206Z,99312.72
2023-02-19T16:52:58.141Z,99300.16
2023-02-19T16:55:27.432Z,99312.00
2023-02-19T16:57:55.786Z,99327.12
2023-02-19T17:00:25.809Z,99323.00
2023-02-19T17:02:57.253Z,99317.09
2023-02-19T17:05:26.982Z,99322.59
2023-02-19T17:07:56.001Z,99330.37
2023-02-19T17:10:26.015Z,99330.87
2023-02-19T17:12:55.394Z,99331.72
2023-02-19T17:15:25.576Z,99321.47
2023-02-19T17:17:53.436Z,99324.94
2023-02-19T17:20:28.361Z,99323.25
2023-02-19T17:22:56.692Z,99319.94
2023-02-19T17:25:24.655Z,99329.38
2023-02-19T17:27:52.684Z,99326.94
2023-02-19T17:30:27.662Z,99314.69
2023-02-19T17:32:55.856Z,99322.41
2023-02-19T17:35:25.170Z,99304.31
2023-02-19T17:37:55.656Z,99299.03
2023-02-19T17:40:33.412Z,99312.22
2023-02-19T17:43:02.472Z,99322.44
2023-02-19T17:45:30.626Z,99338.31
2023-02-19T17:47:59.997Z,99352.91
2023-02-19T17:50:31.470Z,99356.41
2023-02-19T17:52:59.326Z,99355.53
2023-02-19T17:55:27.844Z,99374.66
2023-02-19T17:57:56.250Z,99391.09
2023-02-19T18:00:29.473Z,99398.87
2023-02-19T18:02:57.959Z,99386.75
2023-02-19T18:05:25.906Z,99378.97
2023-02-19T18:07:53.939Z,99346.97
2023-02-19T18:10:25.927Z,99349.59
2023-02-19T18:12:53.917Z,99350.41
2023-02-19T18:15:26.953Z,99346.94
2023-02-19T18:17:56.105Z,99341.75
2023-02-19T18:20:27.045Z,99346.03
2023-02-19T18:22:55.968Z,99367.72
2023-02-19T18:25:24.971Z,99363.38
2023-02-19T18:27:53.323Z,99367.72
2023-02-19T18:30:22.992Z,99371.16
2023-02-19T18:32:53.544Z,99394.53
2023-02-19T18:35:21.809Z,99397.09
2023-02-19T18:37:51.823Z,99405.75
2023-02-19T18:40:21.849Z,99401.41
2023-02-19T18:42:49.729Z,99410.94
2023-02-19T18:45:20.983Z,99402.31
2023-02-19T18:47:50.491Z,99416.16
2023-02-19T18:50:21.097Z,99413.53
2023-02-19T18:52:49.420Z,99427.38
2023-02-19T18:55:17.685Z,99436.03
2023-02-19T18:57:49.620Z,99451.59
2023-02-19T19:00:20.777Z,99449.03
2023-02-19T19:02:50.944Z,99446.41
2023-02-19T19:05:23.682Z,99458.53
2023-02-19T19:07:57.486Z,99474.09
2023-02-19T19:10:26.536Z,99468.06
2023-02-19T19:12:54.627Z,99471.50
2023-02-19T19:15:23.228Z,99478.44
2023-02-19T19:17:51.943Z,99475.78
2023-02-19T19:20:21.602Z,99483.56
2023-02-19T19:22:51.471Z,99480.09
2023-02-19T19:25:21.070Z,99499.09
2023-02-19T19:27:52.246Z,99489.56
2023-02-19T19:30:20.967Z,99497.37
2023-02-19T19:32:49.871Z,99504.34
2023-02-19T19:35:18.752Z,99525.09
2023-02-19T19:37:47.229Z,99524.12
2023-02-19T19:40:18.796Z,99538.13
2023-02-19T19:42:48.579Z,99541.44
2023-02-19T19:45:16.661Z,99557.97
2023-02-19T19:47:44.619Z,99564.91
2023-02-19T19:50:14.642Z,99568.41
2023-02-19T19:52:42.556Z,99559.69
2023-02-19T19:55:10.820Z,99562.25
2023-02-19T19:57:40.850Z,99563.12
2023-02-19T20:00:09.586Z,99563.09
2023-02-19T20:02:40.301Z,99552.69
2023-02-19T20:05:08.658Z,99557.03
2023-02-19T20:07:36.758Z,99556.19
2023-02-19T20:10:05.842Z,99569.19
2023-02-19T20:12:34.244Z,99570.94
2023-02-19T20:15:02.589Z,99565.66
2023-02-19T20:17:30.874Z,99573.38
2023-02-19T20:19:59.325Z,99582.87
2023-02-19T20:22:27.518Z,99597.63
2023-02-19T20:24:55.677Z,99589.66
2023-02-19T20:27:24.915Z,99606.66
2023-02-19T20:29:52.851Z,99612.97
2023-02-19T20:32:21.288Z,99621.59
2023-02-19T20:34:49.792Z,99626.75
2023-02-19T20:37:17.708Z,99640.47
2023-02-19T20:39:45.792Z,99631.66
2023-02-19T20:42:16.741Z,99634.34
2023-02-19T20:44:46.643Z,99635.25
2023-02-19T20:47:16.421Z,99634.91
2023-02-19T20:49:46.461Z,99650.34
2023-02-19T20:52:16.487Z,99659.19
2023-02-19T20:54:45.191Z,99652.22
2023-02-19T20:57:14.623Z,99657.53
2023-02-19T20:59:44.414Z,99670.50
2023-02-19T21:02:18.707Z,99672.84
2023-02-19T21:04:46.733Z,99674.59
2023-02-19T21:07:15.099Z,99666.75
2023-02-19T21:09:43.287Z,99658.41
2023-02-19T21:12:12.730Z,99654.25
2023-02-19T21:14:41.049Z,99655.25
2023-02-19T21:17:09.072Z,99655.28
2023-02-19T21:19:37.004Z,99655.75
2023-02-19T21:22:05.239Z,99635.81
2023-02-19T21:24:33.195Z,99652.94
2023-02-19T21:27:01.184Z,99644.38
2023-02-19T21:29:29.574Z,99640.34
2023-02-19T21:31:58.261Z,99648.91
2023-02-19T21:34:28.421Z,99655.38
2023-02-19T21:36:56.823Z,99658.37
2023-02-19T21:39:27.809Z,99672.81
2023-02-19T21:41:58.890Z,99667.59
2023-02-19T21:44:26.744Z,99672.28
2023-02-19T21:46:54.725Z,99680.75
2023-02-19T21:49:23.450Z,99682.06
2023-02-19T21:51:52.975Z,99673.97
2023-02-19T21:54:24.928Z,99678.12
2023-02-19T21:56:54.357Z,99688.59
2023-02-19T21:59:23.276Z,99678.31
2023-02-19T22:01:51.421Z,99694.53
2023-02-19T22:04:21.773Z,99692.81
2023-02-19T22:06:50.183Z,99692.38
2023-02-19T22:09:18.046Z,99696.34
2023-02-19T22:11:46.251Z,99691.31
2023-02-19T22:14:14.154Z,99699.06
2023-02-19T22:16:42.123Z,99706.78
2023-02-19T22:19:12.153Z,99710.69
2023-02-19T22:21:43.863Z,99699.44
2023-02-19T22:24:17.758Z,99727.94
2023-02-19T22:26:46.017Z,99731.03
2023-02-19T22:29:15.659Z,99738.25
2023-02-19T22:31:43.797Z,99741.31
2023-02-19T22:34:11.956Z,99748.81
2023-02-19T22:36:40.597Z,99776.38
2023-02-19T22:39:15.236Z,99778.59
2023-02-19T22:41:43.928Z,99776.84
2023-02-19T22:44:12.436Z,99795.69
2023-02-19T22:46:40.254Z,99785.84
2023-02-19T22:49:08.523Z,99782.84
2023-02-19T22:51:36.500Z,99787.91
2023-02-19T22:54:04.452Z,99786.69
2023-02-19T22:56:32.905Z,99774.88
2023-02-19T22:59:00.862Z,99782.66
2023-02-19T23:01:28.900Z,99793.84
2023-02-19T23:04:00.440Z,99783.62
2023-02-19T23:06:33.327Z,99783.59
2023-02-19T23:09:17.192Z,99780.69
2023-02-19T23:11:45.584Z,99767.16
2023-02-19T23:14:16.291Z,99768.59
2023-02-19T23:16:44.270Z,99763.00
2023-02-19T23:19:15.337Z,99761.06
2023-02-19T23:21:45.009Z,99770.41
2023-02-19T23:24:13.973Z,99774.09
2023-02-19T23:26:46.158Z,99777.38
2023-02-19T23:29:19.578Z,99771.66
2023-02-19T23:31:47.636Z,99787.94
2023-02-19T23:34:16.422Z,99789.09
2023-02-19T23:36:46.512Z,99802.13
2023-02-19T23:39:16.416Z,99804.38
2023-02-19T23:41:54.728Z,99829.75
2023-02-19T23:44:24.161Z,99827.50
2023-02-19T23:46:53.112Z,99829.41
2023-02-19T23:49:21.487Z,99838.00
2023-02-19T23:51:49.407Z,99838.97
2023-02-19T23:54:17.793Z,99866.50
2023-02-19T23:56:45.800Z,99862.44
2023-02-19T23:59:13.915Z,99872.06
